x

Buoy E01 - Central Maine Shelf (44032) Wave Buoy

1:04am - Thu 23rd Oct 2014 All times are EDT. -4 hours from GMT.

  • Sig Wave height 11.5ft
  • Peak Period 11s
  • Wind
    34mph, 43mph gusts
  • Sea Temp 55°f
  • 空気 Temp 51°f
  • Sea Pressure 1011.6mb
  • Buoy E01 - Central Maine Shelf
  • Buoy E01 - Central Maine Shelf

More Historic Weather Station data

Upgrade to MSW Pro to gain access to the past 30 days of data for over 8000 Wavebouys and Weather Stations around the globe.

Join Pro

Comparision Forecast

View Surf forecast
   
Thu 10/23 1:04am 11.5ft 11s 34 43 mph 1011.6mb 55f 51f
12:04am 11ft 11s 34 40 mph 1012.7mb 55f 51f
Wed 10/22 11:04pm 8.5ft 6s 31 38 mph 1013.9mb 55f 51f
10:04pm 12ft 11s 34 40 mph 1014.3mb 55f 51f
9:04pm 12ft 11s 34 43 mph 1014.6mb 55f 51f
8:04pm 14ft 11s 36 40 mph 1014.7mb 55f 51f
7:04pm 14ft 11s 34 40 mph 1015.6mb 55f 51f
6:04pm 14ft 11s 36 45 mph 1016.1mb 55f 52f
5:04pm 14ft 11s 34 40 mph 1016.2mb 55f 51f
4:04pm 14ft 11s 36 45 mph 1015.5mb 55f 51f
3:04pm 11.5ft 8s 36 43 mph 1015.4mb 55f 51f
2:04pm 11ft 8s 34 43 mph 1015.3mb 55f 51f
1:04pm 8.5ft 8s 31 38 mph 1015.8mb 55f 51f
12:04pm 8.5ft 8s 31 36 mph 1016.3mb 55f 52f
11:04am 8.5ft 8s 27 31 mph 1017.2mb 55f 53f
10:04am 8.5ft 8s 29 36 mph 1017.2mb 55f 52f
9:04am 8.5ft 8s 29 34 mph 1017.6mb 55f 52f
8:04am 9ft 8s 27 34 mph 1018.2mb 55f 52f
7:04am 8ft 8s 29 36 mph 1017.4mb 55f 53f
6:04am 8ft 5s 29 36 mph 1017.7mb 55f 54f
5:04am 9ft 6s 29 34 mph 1017.4mb 55f 53f
4:04am 8ft 6s 29 36 mph 1017.1mb 55f 53f
3:04am 8ft 6s 27 31 mph 1016.8mb 55f 54f
2:04am 8ft 6s 29 38 mph 1016.7mb 55f 54f
1:04am 7ft 5s 25 34 mph 1016.6mb 55f 54f
12:04am 6ft 5s 27 34 mph 1016.5mb 55f 54f
Tue 10/21 11:04pm 6ft 6s 25 31 mph 1016.3mb 55f 55f
10:04pm 5ft 6s 20 27 mph 1016mb 55f 55f
9:04pm 5ft 6s 18 22 mph 1015.7mb 55f 55f
8:04pm 5ft 6s 18 22 mph 1015.5mb 55f 56f
7:04pm 4.5ft 8s 16 18 mph 1015.5mb 55f 56f
6:04pm 2.5ft 5s 16 18 mph 1015.3mb 55f 56f
5:04pm 2.5ft 4s 11 13 mph 1015.4mb 55f 56f
4:04pm 2.5ft 4s 16 18 mph 1015.1mb 55f 56f
3:04pm 2.5ft 4s 13 16 mph 1015.1mb 55f 56f
2:04pm 2.5ft 4s 11 13 mph 1014.9mb 55f 56f
1:04pm 2ft 4s 13 16 mph 1015.5mb 55f 56f
12:04pm 1.6ft 4s 11 13 mph 1016.1mb 55f 55f
11:04am 2ft 6s 11 13 mph 1016.6mb 55f 56f
10:04am 2ft 6s 11 13 mph 1016.5mb 55f 55f
9:04am 2.5ft 5s 11 13 mph 1016.5mb 55f 55f
8:04am 2.5ft 5s 9
mph
1016.2mb 55f 54f
7:04am 3.5ft 5s 7
mph
1016mb 55f 54f
6:04am 3ft 8s 4
mph
1016mb 55f 54f
5:04am 3.5ft 5s 2 4 mph 1015.9mb 55f 54f
4:04am 2.5ft 5s 7
mph
1015.7mb 55f 54f
3:04am 2ft 5s 9
mph
1015.7mb 55f 54f
2:04am 2ft 5s 11 13 mph 1015.7mb 55f 55f
1:04am 2.5ft 5s 11 16 mph 1015.5mb 55f 55f
12:04am 2.5ft 5s 11 13 mph 1015mb 55f 55f
Mon 10/20 11:04pm 2.5ft 5s 11 13 mph 1014.8mb 55f 55f
10:04pm 3ft 5s 13 16 mph 1014.4mb 55f 55f
9:04pm 3.5ft 5s 13
mph
1014.2mb 55f 55f
8:04pm 4ft 5s 13 16 mph 1013.8mb 55f 54f
7:04pm 3.5ft 5s 16 20 mph 1013.9mb 55f 53f
6:04pm 3.5ft 4s 18 20 mph 1013.7mb 55f 52f
5:04pm 2.5ft 5s 16 20 mph 1013.3mb 55f 51f
4:04pm 2.5ft 3s 16 18 mph 1013.1mb 55f 50f
3:04pm 2.5ft 4s 16 18 mph 1013.1mb 55f 48f
2:04pm 2.5ft 3s 16 20 mph 1013.3mb 55f 47f
1:04pm 2ft 5s 13 18 mph 1013.7mb 55f 46f
12:04pm 3.5ft 11s 13 16 mph 1014.1mb 55f 46f
11:04am 2.5ft 5s 9 16 mph 1014.4mb 55f 45f
10:04am 2.5ft 5s 11 16 mph 1014.6mb 55f 44f
9:04am 3.5ft 5s 13 18 mph 1014.3mb 55f 44f
8:04am 3ft 4s 16 20 mph 1013.8mb 55f 44f
7:04am 2.5ft 4s 18 22 mph 1012.9mb 55f 44f
6:04am 2.5ft 4s 22 25 mph 1012.4mb 55f 45f
5:04am 2.5ft 5s 18 22 mph 1012.1mb 55f 46f
4:04am 2.5ft 4s 20 25 mph 1011.7mb 55f 46f
3:04am 2.5ft 4s 22 27 mph 1011.1mb 55f 47f
2:04am 3ft 4s 20 27 mph 1011.1mb 55f 46f
1:04am 4.5ft 11s 20 27 mph 1010.5mb 55f 47f
12:04am 4.5ft 11s 22 29 mph 1010mb 55f 47f
Sun 10/19 11:04pm 2.5ft 3s 22 27 mph 1009.7mb 56f 47f
10:04pm 2.5ft 4s 20 25 mph 1009.5mb 56f 48f
9:04pm 2.5ft 4s 20 25 mph 1009.3mb 56f 48f
8:04pm 3ft 4s 20 25 mph 1008.9mb 56f 48f
7:04pm 3.5ft 4s 25 31 mph 1008.1mb 56f 49f
6:04pm 3.5ft 4s 25 31 mph 1007.8mb 56f 49f
5:04pm 3.5ft 4s 25 29 mph 1007.3mb 56f 50f
4:04pm 4ft 8s 22 27 mph 1006.5mb 56f 51f
3:04pm 5ft 11s 13 18 mph 1005.9mb 56f 52f
2:04pm 5ft 11s 9 13 mph 1005.8mb 56f 51f
1:04pm  -   -  13 18 mph 1004.9mb 56f 49f
12:04pm  -   -  13 18 mph 1006.3mb 55f 48f
11:04am 2ft 3s 16 20 mph 1006.2mb 55f 47f
10:04am 2.5ft 3s 18 22 mph 1006mb 56f 47f
9:04am 2.5ft 4s 18 22 mph 1005.9mb 56f 48f
8:04am 3ft 4s 22 29 mph 1004.6mb 56f 49f